Glenwood, MN (56334)

6:43 AM CDT on October 24, 2014 (GMT -0500)
KMGK (Magic 107.1) FM | Change Station
CLOSE
Current Station
Personal Weather Station
Location: Glenwood, MN
Elevation: 1168 ft
Nearby Weather Stations

Elev 1168 ft 45.65 °N, 95.39 °W | Updated 7 seconds ago

Clear
Clear
49.9 °F
Feels Like 50 °F
N
2.0
Wind Variable Wind from SW
Gusts 5.0 mph

Today
High -- | Low -- °F
--% Chance of Precip.
Yesterday
High -- | Low -- °F
Precip. -- in
7:50 AM 6:20 PM
New Moon, 0% visible
Pressure 29.84 in
Visibility 10.0 miles
Clouds Clear
Windchill 50 °F
Dew Point 45 °F
Humidity 84%
Rainfall 0.00 in
Snow Depth Not available.
UV 0 out of 12
Pollen 1.70 out of 12
Air Quality Not available.
Flu Activity Sporadic
METAR KGHW 241133Z AUTO 16004KT 10SM CLR 07/06 A2984 RMK AO2

More Conditions Fewer Conditions

Pressure 29.84 in
Visibility 10.0 miles
Clouds Clear
Windchill 50 °F
Dew Point 45 °F
Humidity 84%
Rainfall 0.00 in
Snow Depth Not available.
UV 0 out of 12
Pollen 1.70 out of 12
Air Quality Not available.
Flu Activity Sporadic
METAR KGHW 241133Z AUTO 16004KT 10SM CLR 07/06 A2984 RMK AO2

More Conditions Fewer Conditions

10-Day Weather Forecast

Almanac

Astronomy

Oct. 24, 2014 Rise Set
Actual Time 7:50 AM CDT 6:20 PM CDT
Civil Twilight 7:19 AM CDT 6:51 PM CDT
Nautical Twilight 6:45 AM CDT 7:25 PM CDT
Astronomical Twilight 6:10 AM CDT 7:59 PM CDT
Moon 8:31 AM CDT 6:58 PM CDT
Length of Visible Light 11h 31m
Length of Day
10h 30m
Tomorrow will be 2m 59s shorter.
New Moon, 0% of the Moon is Illuminated
Today
New Moon
Oct 30
First Quarter
Nov 6
Full
Nov 14
Last Quarter
Nov 22
New

Today's Extremes

State Highs State Lows

Community

WunderPhotos

Upload Photos

1,764,526 photos uploaded!

WunderBlogs® & News

Nearby

Snow Depth

Station Depth Elevation
No new snow has been reported.

Earthquake Activity

City Distance Mag. Time & Date
No recent earthquake activity has been reported nearby.
Minimum magnitude displayed is 2.5.

Coastal Water Temperatures

Place Temperature
No Stations Reporting

Nearby Weather Stations